Observation data for Wolfforth on 12/08/2018      Previous  Date       Current Mesonet Observations  Soil Data  Daily Summary Page  Observations in Plain Language
KWOS 080600Z 02008KT M00/M00 A3026 RMK A01 T10011004  RH  098%=      5-min Rain = 0
KWOS 080605Z 03008KT M00/M01 A3026 RMK A01 T10011005  RH  099%=      5-min Rain = 0
KWOS 080610Z 03007KT M00/M00 A3026 RMK A01 T10011004  RH  099%=      5-min Rain = 0
KWOS 080615Z 03008KT M00/M00 A3026 RMK A01 T10011004  RH  099%=      5-min Rain = 0
KWOS 080620Z 02007KT M00/M01 A3026 RMK A01 T10021005  RH  099%=      5-min Rain = 0
KWOS 080625Z 02008KT M00/M01 A3025 RMK A01 T10021005  RH  099%=      5-min Rain = 0
KWOS 080630Z 02006KT M00/M01 A3026 RMK A01 T10021005  RH  099%=      5-min Rain = 0
KWOS 080635Z 02006KT M00/M01 A3026 RMK A01 T10021005  RH  099%=      5-min Rain = 0
KWOS 080640Z 01006KT M00/M01 A3026 RMK A01 T10021005  RH  099%=      5-min Rain = 0
KWOS 080645Z 00008KT M00/M01 A3026 RMK A01 T10031006  RH  099%=      5-min Rain = 0
KWOS 080650Z 00008KT M00/M01 A3026 RMK A01 T10041007  RH  099%=      5-min Rain = 0
KWOS 080655Z 00007KT M01/M01 A3026 RMK A01 T10051008  RH  099%=      5-min Rain = 0
KWOS 080700Z 00008KT M01/M01 A3026 RMK A01 T10051008  RH  099%=      5-min Rain = 0
KWOS 080705Z 00007KT M01/M01 A3026 RMK A01 T10061008  RH  099%=      5-min Rain = 0
KWOS 080710Z 01007KT M01/M01 A3026 RMK A01 T10061009  RH  099%=      5-min Rain = 0
KWOS 080715Z 01006KT M01/M01 A3026 RMK A01 T10061008  RH  099%=      5-min Rain = 0
KWOS 080720Z 00006KT M01/M01 A3026 RMK A01 T10061008  RH  099%=      5-min Rain = 0
KWOS 080725Z 01007KT M01/M01 A3026 RMK A01 T10061008  RH  100%=      5-min Rain = 0
KWOS 080730Z 00007KT M01/M01 A3026 RMK A01 T10071009  RH  100%=      5-min Rain = 0
KWOS 080735Z 00008KT M01/M01 A3026 RMK A01 T10071009  RH  100%=      5-min Rain = 0
KWOS 080740Z 01008KT M01/M01 A3026 RMK A01 T10081009  RH  100%=      5-min Rain = 0
KWOS 080745Z 01008KT M01/M01 A3026 RMK A01 T10081009  RH  100%=      5-min Rain = 0
KWOS 080750Z 00008G13KT M01/M01 A3025 RMK A01 T10081010  RH  100%=      5-min Rain = 0
KWOS 080755Z 01010KT M01/M01 A3025 RMK A01 T10091010  RH  100%=      5-min Rain = 0
KWOS 080800Z 01008KT M01/M01 A3025 RMK A01 T10091010  RH  100%=      5-min Rain = 0
KWOS 080805Z 01007KT M01/M01 A3025 RMK A01 T10091010  RH  100%=      5-min Rain = 0
KWOS 080810Z 01009KT M01/M01 A3025 RMK A01 T10091010  RH  100%=      5-min Rain = 0
KWOS 080815Z 01009KT M01/M01 A3025 RMK A01 T10091010  RH  100%=      5-min Rain = 0
KWOS 080820Z 01010KT M01/M01 A3024 RMK A01 T10101011  RH  100%=      5-min Rain = 0
KWOS 080825Z 01010KT M01/M01 A3024 RMK A01 T10101011  RH  100%=      5-min Rain = 0
KWOS 080830Z 01012G17KT M01/M01 A3024 RMK A01 T10101012  RH  100%=      5-min Rain = 0
KWOS 080835Z 01011KT M01/M01 A3024 RMK A01 T10111012  RH  100%=      5-min Rain = 0
KWOS 080840Z 01010G16KT M01/M01 A3024 RMK A01 T10111013  RH  100%=      5-min Rain = 0
KWOS 080845Z 01010KT M01/M01 A3024 RMK A01 T10121013  RH  100%=      5-min Rain = 0
KWOS 080850Z 01009KT M01/M01 A3024 RMK A01 T10111013  RH  100%=      5-min Rain = 0
KWOS 080855Z 01010KT M01/M01 A3024 RMK A01 T10111013  RH  100%=      5-min Rain = 0
KWOS 080900Z 01010KT M01/M01 A3023 RMK A01 T10111012  RH  100%=      5-min Rain = 0
KWOS 080905Z 01012KT M01/M01 A3023 RMK A01 T10121013  RH  100%=      5-min Rain = 0
KWOS 080910Z 01013KT M01/M01 A3023 RMK A01 T10121013  RH  100%=      5-min Rain = 0
KWOS 080915Z 01011KT M01/M01 A3023 RMK A01 T10121013  RH  100%=      5-min Rain = 0
KWOS 080920Z 01010KT M01/M01 A3023 RMK A01 T10121013  RH  100%=      5-min Rain = 0
KWOS 080925Z 01009KT M01/M01 A3023 RMK A01 T10121013  RH  100%=      5-min Rain = 0
KWOS 080930Z 01008KT M01/M01 A3023 RMK A01 T10121013  RH  100%=      5-min Rain = 0
KWOS 080935Z 01011KT M01/M01 A3023 RMK A01 T10121013  RH  100%=      5-min Rain = 0
KWOS 080940Z 01011KT M01/M01 A3023 RMK A01 T10121013  RH  100%=      5-min Rain = 0
KWOS 080945Z 01010KT M01/M01 A3023 RMK A01 T10121013  RH  100%=      5-min Rain = 0
KWOS 080950Z 01010KT M01/M01 A3023 RMK A01 T10121013  RH  100%=      5-min Rain = 0
KWOS 080955Z 01009KT M01/M01 A3023 RMK A01 T10121013  RH  100%=      5-min Rain = 0
KWOS 081000Z 01009KT M01/M01 A3022 RMK A01 T10121013  RH  100%=      5-min Rain = 0
KWOS 081005Z 01009KT M01/M01 A3022 RMK A01 T10121013  RH  100%=      5-min Rain = 0
KWOS 081010Z 01009KT M01/M01 A3022 RMK A01 T10121013  RH  100%=      5-min Rain = 0
KWOS 081015Z 01009KT M01/M01 A3022 RMK A01 T10111013  RH  100%=      5-min Rain = 0
KWOS 081020Z 01008KT M01/M01 A3022 RMK A01 T10121013  RH  100%=      5-min Rain = 0
KWOS 081025Z 01008KT M01/M01 A3022 RMK A01 T10121013  RH  100%=      5-min Rain = 0
KWOS 081030Z 01008KT M01/M01 A3022 RMK A01 T10111013  RH  100%=      5-min Rain = 0
KWOS 081035Z 01008KT M01/M01 A3022 RMK A01 T10121013  RH  100%=      5-min Rain = 0
KWOS 081040Z 01008KT M01/M01 A3022 RMK A01 T10111013  RH  100%=      5-min Rain = 0
KWOS 081045Z 02008KT M01/M01 A3022 RMK A01 T10121013  RH  100%=      5-min Rain = 0
KWOS 081050Z 02009KT M01/M01 A3022 RMK A01 T10111013  RH  100%=      5-min Rain = 0
KWOS 081055Z 02009KT M01/M01 A3022 RMK A01 T10111013  RH  100%=      5-min Rain = 0
KWOS 081100Z 02008KT M01/M01 A3022 RMK A01 T10111013  RH  100%=      5-min Rain = 0
KWOS 081105Z 01007KT M01/M01 A3023 RMK A01 T10111013  RH  100%=      5-min Rain = 0
KWOS 081110Z 01007KT M01/M01 A3023 RMK A01 T10111013  RH  100%=      5-min Rain = 0
KWOS 081115Z 01007KT M01/M01 A3023 RMK A01 T10111012  RH  100%=      5-min Rain = 0
KWOS 081120Z 01005KT M01/M01 A3023 RMK A01 T10111012  RH  100%=      5-min Rain = 0
KWOS 081125Z 01005KT M01/M01 A3024 RMK A01 T10111012  RH  100%=      5-min Rain = 0
KWOS 081130Z 00005KT M01/M01 A3024 RMK A01 T10111012  RH  100%=      5-min Rain = 0
KWOS 081135Z 00005KT M01/M01 A3024 RMK A01 T10111012  RH  100%=      5-min Rain = 0
KWOS 081140Z 00005KT M01/M01 A3024 RMK A01 T10111012  RH  100%=      5-min Rain = 0
KWOS 081145Z 00005KT M01/M01 A3024 RMK A01 T10111012  RH  100%=      5-min Rain = 0
KWOS 081150Z 36006KT M01/M01 A3025 RMK A01 T10111012  RH  100%=      5-min Rain = 0
KWOS 081155Z 00006KT M01/M01 A3025 RMK A01 T10111012  RH  100%=      5-min Rain = 0
KWOS 081200Z 00005KT M01/M01 A3025 RMK A01 T10111012  RH  100%=      5-min Rain = 0
KWOS 081205Z 01006KT M01/M01 A3025 RMK A01 T10111012  RH  100%=      5-min Rain = 0
KWOS 081210Z 01007KT M01/M01 A3025 RMK A01 T10111012  RH  100%=      5-min Rain = 0
KWOS 081215Z 01007KT M01/M01 A3025 RMK A01 T10111012  RH  100%=      5-min Rain = 0
KWOS 081220Z 01007KT M01/M01 A3025 RMK A01 T10111013  RH  100%=      5-min Rain = 0
KWOS 081225Z 01007KT M01/M01 A3025 RMK A01 T10111013  RH  100%=      5-min Rain = 0
KWOS 081230Z 01007KT M01/M01 A3025 RMK A01 T10121013  RH  100%=      5-min Rain = 0
KWOS 081235Z 00006KT M01/M01 A3025 RMK A01 T10111013  RH  100%=      5-min Rain = 0
KWOS 081240Z 00006KT M01/M01 A3026 RMK A01 T10111013  RH  100%=      5-min Rain = 0
KWOS 081245Z 00006KT M01/M01 A3026 RMK A01 T10111013  RH  100%=      5-min Rain = 0
KWOS 081250Z 00006KT M01/M01 A3026 RMK A01 T10111013  RH  100%=      5-min Rain = 0
KWOS 081255Z 00007KT M01/M01 A3026 RMK A01 T10111013  RH  100%=      5-min Rain = 0
KWOS 081300Z 00009KT M01/M01 A3026 RMK A01 T10121013  RH  100%=      5-min Rain = 0
KWOS 081305Z 01009KT M01/M01 A3027 RMK A01 T10121013  RH  100%=      5-min Rain = 0
KWOS 081310Z 01008KT M01/M01 A3027 RMK A01 T10121013  RH  100%=      5-min Rain = 0
KWOS 081315Z 01007KT M01/M01 A3027 RMK A01 T10121013  RH  100%=      5-min Rain = 0
KWOS 081320Z 02006KT M01/M01 A3027 RMK A01 T10121013  RH  100%=      5-min Rain = 0
KWOS 081325Z 02007KT M01/M01 A3027 RMK A01 T10121013  RH  100%=      5-min Rain = 0
KWOS 081330Z 02007KT M01/M01 A3027 RMK A01 T10121013  RH  100%=      5-min Rain = 0
KWOS 081335Z 02006KT M01/M01 A3027 RMK A01 T10121013  RH  100%=      5-min Rain = 0
KWOS 081340Z 02006KT M01/M01 A3028 RMK A01 T10121013  RH  100%=      5-min Rain = 0
KWOS 081345Z 02006KT M01/M01 A3028 RMK A01 T10121013  RH  100%=      5-min Rain = 0
KWOS 081350Z 01006KT M01/M01 A3028 RMK A01 T10121014  RH  100%=      5-min Rain = 0
KWOS 081355Z 01007KT M01/M01 A3028 RMK A01 T10121013  RH  100%=      5-min Rain = 0
KWOS 081400Z 01007KT M01/M01 A3028 RMK A01 T10111013  RH  100%=      5-min Rain = 0
KWOS 081405Z 01007KT M01/M01 A3028 RMK A01 T10111013  RH  100%=      5-min Rain = 0
KWOS 081410Z 01007KT M01/M01 A3028 RMK A01 T10111013  RH  100%=      5-min Rain = 0
KWOS 081415Z 01007KT M01/M01 A3028 RMK A01 T10111013  RH  100%=      5-min Rain = 0
KWOS 081420Z 01007KT M01/M01 A3029 RMK A01 T10111013  RH  100%=      5-min Rain = 0
KWOS 081425Z 01007KT M01/M01 A3029 RMK A01 T10111012  RH  100%=      5-min Rain = 0
KWOS 081430Z 01007KT M01/M01 A3029 RMK A01 T10111012  RH  100%=      5-min Rain = 0
KWOS 081435Z 01007KT M01/M01 A3029 RMK A01 T10111012  RH  100%=      5-min Rain = 0
KWOS 081440Z 01007KT M01/M01 A3029 RMK A01 T10111012  RH  100%=      5-min Rain = 0
KWOS 081445Z 36006KT M01/M01 A303 RMK A01 T10111012  RH  100%=      5-min Rain = 0
KWOS 081450Z 36006KT M01/M01 A303 RMK A01 T10101012  RH  100%=      5-min Rain = 0
KWOS 081455Z 36007KT M01/M01 A303 RMK A01 T10101012  RH  100%=      5-min Rain = 0
KWOS 081500Z 36007KT M01/M01 A303 RMK A01 T10101012  RH  100%=      5-min Rain = 0
KWOS 081505Z 36007KT M01/M01 A303 RMK A01 T10101011  RH  100%=      5-min Rain = 0
KWOS 081510Z 36007KT M01/M01 A303 RMK A01 T10101011  RH  100%=      5-min Rain = 0
KWOS 081515Z 36007KT M01/M01 A3031 RMK A01 T10091011  RH  100%=      5-min Rain = 0
KWOS 081520Z 36007KT M01/M01 A3031 RMK A01 T10091010  RH  100%=      5-min Rain = 0
KWOS 081525Z 36006KT M01/M01 A3031 RMK A01 T10091010  RH  100%=      5-min Rain = 0
KWOS 081530Z 35007KT M01/M01 A3031 RMK A01 T10091010  RH  100%=      5-min Rain = 0
KWOS 081535Z 35007KT M01/M01 A3031 RMK A01 T10081010  RH  100%=      5-min Rain = 0
KWOS 081540Z 36007KT M01/M01 A3031 RMK A01 T10081009  RH  100%=      5-min Rain = 0
KWOS 081545Z 35007KT M01/M01 A3031 RMK A01 T10081009  RH  100%=      5-min Rain = 0
KWOS 081550Z 36008KT M01/M01 A3031 RMK A01 T10071008  RH  100%=      5-min Rain = 0
KWOS 081555Z 35007KT M01/M01 A3032 RMK A01 T10061008  RH  100%=      5-min Rain = 0
KWOS 081600Z 36007KT M01/M01 A3032 RMK A01 T10061007  RH  100%=      5-min Rain = 0
KWOS 081605Z 36007KT M00/M01 A3032 RMK A01 T10041006  RH  100%=      5-min Rain = 0
KWOS 081610Z 35006KT M00/M01 A3032 RMK A01 T10041005  RH  100%=      5-min Rain = 0
KWOS 081615Z 35006KT M00/M01 A3032 RMK A01 T10041005  RH  100%=      5-min Rain = 0
KWOS 081620Z 36008KT M00/M01 A3032 RMK A01 T10041005  RH  100%=      5-min Rain = 0
KWOS 081625Z 35007KT M00/M00 A3032 RMK A01 T10021004  RH  100%=      5-min Rain = 0
KWOS 081630Z 35007KT M00/M00 A3032 RMK A01 T10021004  RH  100%=      5-min Rain = 0
KWOS 081635Z 35007KT M00/M00 A3032 RMK A01 T10011002  RH  100%=      5-min Rain = 0
KWOS 081640Z 35007KT 00/00 A3032 RMK A01 T000000-2  RH  100%=      5-min Rain = 0
KWOS 081645Z 35007KT 00/00 A3032 RMK A01 T000000-1  RH  100%=      5-min Rain = 0
KWOS 081650Z 35007KT 00/M00 A3032 RMK A01 T00011001  RH  100%=      5-min Rain = 0
KWOS 081655Z 35007KT 00/M00 A3032 RMK A01 T00011001  RH  100%=      5-min Rain = 0
KWOS 081700Z 36007KT 00/00 A3032 RMK A01 T00020000  RH  100%=      5-min Rain = 0
KWOS 081705Z 00008KT 00/00 A3032 RMK A01 T00020000  RH  100%=      5-min Rain = 0
KWOS 081710Z 36006KT 00/00 A3032 RMK A01 T00040002  RH  100%=      5-min Rain = 0
KWOS 081715Z 36005KT 01/01 A3032 RMK A01 T00080006  RH  100%=      5-min Rain = 0
KWOS 081720Z 35006KT 01/01 A3032 RMK A01 T00090007  RH  100%=      5-min Rain = 0
KWOS 081725Z 34006KT 01/01 A3032 RMK A01 T00090007  RH  100%=      5-min Rain = 0
KWOS 081730Z 34007KT 01/01 A3032 RMK A01 T00080006  RH  100%=      5-min Rain = 0
KWOS 081735Z 34007KT 01/00 A3032 RMK A01 T00060004  RH  100%=      5-min Rain = 0
KWOS 081740Z 34007KT 00/00 A3032 RMK A01 T00040003  RH  100%=      5-min Rain = 0
KWOS 081745Z 33007KT 00/00 A3032 RMK A01 T00040002  RH  100%=      5-min Rain = 0
KWOS 081750Z 34008KT 00/00 A3032 RMK A01 T00030001  RH  100%=      5-min Rain = 0
KWOS 081755Z 34007KT 00/00 A3032 RMK A01 T00040002  RH  100%=      5-min Rain = 0
KWOS 081800Z 34007KT 01/01 A3031 RMK A01 T00060005  RH  100%=      5-min Rain = 0
KWOS 081805Z 34006KT 01/00 A3031 RMK A01 T00060004  RH  100%=      5-min Rain = 0
KWOS 081810Z 34006KT 01/00 A3031 RMK A01 T00060004  RH  100%=      5-min Rain = 0
KWOS 081815Z 34007KT 01/00 A3031 RMK A01 T00060004  RH  100%=      5-min Rain = 0
KWOS 081820Z 35007KT 01/01 A303 RMK A01 T00060005  RH  100%=      5-min Rain = 0
KWOS 081825Z 35006KT 01/01 A303 RMK A01 T00100008  RH  100%=      5-min Rain = 0
KWOS 081830Z 35006KT 01/01 A303 RMK A01 T00110009  RH  100%=      5-min Rain = 0
KWOS 081835Z 35007KT 01/01 A3029 RMK A01 T00100008  RH  100%=      5-min Rain = 0
KWOS 081840Z 35007KT 01/01 A3029 RMK A01 T00110009  RH  100%=      5-min Rain = 0
KWOS 081845Z 36006KT 01/01 A3029 RMK A01 T00120010  RH  100%=      5-min Rain = 0
KWOS 081850Z 35006KT 01/01 A3028 RMK A01 T00120010  RH  100%=      5-min Rain = 0
KWOS 081855Z 35006KT 01/01 A3028 RMK A01 T00100007  RH  099%=      5-min Rain = 0.01
KWOS 081900Z 35006KT 01/00 A3028 RMK A01 T00080004  RH  099%=      5-min Rain = 0.02
KWOS 081905Z 35006KT 01/00 A3028 RMK A01 T00060001  RH  098%=      5-min Rain = 0.01
KWOS 081910Z 34005KT 01/M00 A3027 RMK A01 T00051001  RH  097%=      5-min Rain = 0.03
KWOS 081915Z 35006KT 01/M00 A3027 RMK A01 T00061001  RH  096%=      5-min Rain = 0.03
KWOS 081920Z 34005KT 01/M00 A3027 RMK A01 T00071003  RH  094%=      5-min Rain = 0.03
KWOS 081925Z 32005KT 01/M01 A3027 RMK A01 T00071005  RH  093%=      5-min Rain = 0.03
KWOS 081930Z 35005KT 01/M01 A3027 RMK A01 T00071006  RH  091%=      5-min Rain = 0.03
KWOS 081935Z 34004KT 01/M01 A3026 RMK A01 T00081008  RH  091%=      5-min Rain = 0.02
KWOS 081940Z 34005KT 01/M01 A3026 RMK A01 T00071009  RH  090%=      5-min Rain = 0.02
KWOS 081945Z 32006KT 01/M01 A3027 RMK A01 T00061010  RH  090%=      5-min Rain = 0.01
KWOS 081950Z 33006KT 01/M01 A3027 RMK A01 T00061011  RH  089%=      5-min Rain = 0.01
KWOS 081955Z 33006KT 01/M01 A3027 RMK A01 T00061011  RH  089%=      5-min Rain = 0.01
KWOS 082000Z 32006KT 01/M01 A3026 RMK A01 T00071010  RH  089%=      5-min Rain = 0.01
KWOS 082005Z 33007KT 01/M01 A3026 RMK A01 T00061011  RH  089%=      5-min Rain = 0.01
KWOS 082010Z 33006KT 01/M01 A3026 RMK A01 T00061012  RH  088%=      5-min Rain = 0.01
KWOS 082015Z 33007KT 01/M01 A3026 RMK A01 T00061012  RH  088%=      5-min Rain = 0.01
KWOS 082020Z 34007KT 01/M01 A3026 RMK A01 T00061012  RH  088%=      5-min Rain = 0.01
KWOS 082025Z 33006KT 01/M01 A3026 RMK A01 T00061012  RH  089%=      5-min Rain = 0.01
KWOS 082030Z 34007KT 01/M01 A3025 RMK A01 T00071012  RH  088%=      5-min Rain = 0.01
KWOS 082035Z 34007KT 01/M01 A3025 RMK A01 T00061012  RH  088%=      5-min Rain = 0.01
KWOS 082040Z 34007KT 01/M01 A3025 RMK A01 T00061012  RH  089%=      5-min Rain = 0.01
KWOS 082045Z 34007KT 01/M01 A3025 RMK A01 T00061012  RH  089%=      5-min Rain = 0.01
KWOS 082050Z 34007KT 01/M01 A3025 RMK A01 T00061012  RH  089%=      5-min Rain = 0
KWOS 082055Z 34006KT 01/M01 A3025 RMK A01 T00061012  RH  089%=      5-min Rain = 0.01
KWOS 082100Z 34007KT 01/M01 A3025 RMK A01 T00071012  RH  088%=      5-min Rain = 0.01
KWOS 082105Z 34007KT 01/M01 A3025 RMK A01 T00071012  RH  088%=      5-min Rain = 0.01
KWOS 082110Z 33006KT 01/M01 A3025 RMK A01 T00081011  RH  088%=      5-min Rain = 0
KWOS 082115Z 33005KT 01/M01 A3025 RMK A01 T00071012  RH  088%=      5-min Rain = 0.01
KWOS 082120Z 34004KT 01/M01 A3025 RMK A01 T00081011  RH  088%=      5-min Rain = 0.01
KWOS 082125Z 34005KT 01/M01 A3025 RMK A01 T00101010  RH  087%=      5-min Rain = 0
KWOS 082130Z 35006KT 01/M01 A3025 RMK A01 T00111011  RH  086%=      5-min Rain = 0.01
KWOS 082135Z 34006KT 01/M01 A3025 RMK A01 T00101013  RH  086%=      5-min Rain = 0.01
KWOS 082140Z 34006KT 01/M01 A3025 RMK A01 T00081013  RH  087%=      5-min Rain = 0.01
KWOS 082145Z 34006KT 01/M01 A3025 RMK A01 T00081013  RH  087%=      5-min Rain = 0.01
KWOS 082150Z 34006KT 01/M01 A3025 RMK A01 T00071013  RH  087%=      5-min Rain = 0
KWOS 082155Z 33006KT 01/M01 A3025 RMK A01 T00071012  RH  088%=      5-min Rain = 0.01
KWOS 082200Z 33006KT 01/M01 A3025 RMK A01 T00061013  RH  088%=      5-min Rain = 0.01
KWOS 082205Z 34007KT 01/M01 A3025 RMK A01 T00061013  RH  088%=      5-min Rain = 0
KWOS 082210Z 34007KT 00/M01 A3025 RMK A01 T00041014  RH  089%=      5-min Rain = 0.01
KWOS 082215Z 35007KT 00/M01 A3025 RMK A01 T00041014  RH  089%=      5-min Rain = 0
KWOS 082220Z 35006KT 00/M01 A3025 RMK A01 T00041013  RH  089%=      5-min Rain = 0
KWOS 082225Z 35005KT 00/M01 A3025 RMK A01 T00041013  RH  089%=      5-min Rain = 0
KWOS 082230Z 35005KT 00/M01 A3025 RMK A01 T00041012  RH  090%=      5-min Rain = 0.01
KWOS 082235Z 35005KT 00/M01 A3025 RMK A01 T00041013  RH  090%=      5-min Rain = 0
KWOS 082240Z 35004KT 00/M01 A3025 RMK A01 T00041013  RH  090%=      5-min Rain = 0
KWOS 082245Z 34005KT 00/M01 A3025 RMK A01 T00041013  RH  089%=      5-min Rain = 0.01
KWOS 082250Z 34005KT 00/M01 A3025 RMK A01 T00041013  RH  089%=      5-min Rain = 0
KWOS 082255Z 34006KT 00/M01 A3025 RMK A01 T00031014  RH  089%=      5-min Rain = 0
KWOS 082300Z 34006KT 00/M02 A3025 RMK A01 T00031015  RH  089%=      5-min Rain = 0
KWOS 082305Z 33005KT 00/M02 A3025 RMK A01 T00021015  RH  089%=      5-min Rain = 0
KWOS 082310Z 32005KT 00/M02 A3025 RMK A01 T00021016  RH  089%=      5-min Rain = 0
KWOS 082315Z 34005KT 00/M02 A3025 RMK A01 T00011015  RH  089%=      5-min Rain = 0
KWOS 082320Z 35004KT 00/M02 A3024 RMK A01 T00011015  RH  090%=      5-min Rain = 0
KWOS 082325Z 34004KT 00/M02 A3024 RMK A01 T00011015  RH  090%=      5-min Rain = 0.01
KWOS 082330Z 34005KT 00/M02 A3024 RMK A01 T00011015  RH  090%=      5-min Rain = 0
KWOS 082335Z 33004KT 00/M02 A3024 RMK A01 T00011015  RH  090%=      5-min Rain = 0
KWOS 082340Z 33003KT M00/M02 A3024 RMK A01 T10011015  RH  091%=      5-min Rain = 0
KWOS 082345Z 33003KT M00/M02 A3024 RMK A01 T10021015  RH  092%=      5-min Rain = 0
KWOS 082350Z 32003KT M00/M02 A3025 RMK A01 T10021015  RH  092%=      5-min Rain = 0
KWOS 082355Z 32003KT M00/M02 A3025 RMK A01 T10031015  RH  092%=      5-min Rain = 0
KWOS 090000Z 35003KT M00/M02 A3025 RMK A01 T10041016  RH  092%=      5-min Rain = 0
KWOS 090005Z 34003KT M01/M02 A3025 RMK A01 T10051017  RH  092%=      5-min Rain = 0
KWOS 090010Z 33003KT M01/M02 A3025 RMK A01 T10061018  RH  092%=      5-min Rain = 0
KWOS 090015Z 31003KT M01/M02 A3026 RMK A01 T10071018  RH  093%=      5-min Rain = 0
KWOS 090020Z 31003KT M01/M02 A3026 RMK A01 T10081019  RH  093%=      5-min Rain = 0
KWOS 090025Z 32002KT M01/M02 A3026 RMK A01 T10101020  RH  093%=      5-min Rain = 0
KWOS 090030Z 30003KT M01/M02 A3026 RMK A01 T10111021  RH  093%=      5-min Rain = 0
KWOS 090035Z 30003KT M01/M02 A3026 RMK A01 T10131023  RH  094%=      5-min Rain = 0
KWOS 090040Z 31002KT M02/M03 A3026 RMK A01 T10161025  RH  094%=      5-min Rain = 0
KWOS 090045Z 31002KT M02/M03 A3026 RMK A01 T10171026  RH  094%=      5-min Rain = 0
KWOS 090050Z 33002KT M02/M02 A3026 RMK A01 T10161024  RH  095%=      5-min Rain = 0
KWOS 090055Z 35001KT M02/M02 A3026 RMK A01 T10151022  RH  096%=      5-min Rain = 0
KWOS 090100Z 35001KT M02/M03 A3026 RMK A01 T10171025  RH  095%=      5-min Rain = 0
KWOS 090105Z 03001KT M02/M03 A3026 RMK A01 T10191027  RH  095%=      5-min Rain = 0
KWOS 090110Z 03000KT M02/M03 A3026 RMK A01 T10191025  RH  096%=      5-min Rain = 0
KWOS 090115Z 00000KT M02/M03 A3026 RMK A01 T10191025  RH  096%=      5-min Rain = 0
KWOS 090120Z 00000KT M02/M03 A3026 RMK A01 T10211027  RH  096%=      5-min Rain = 0
KWOS 090125Z 00000KT M02/M03 A3026 RMK A01 T10231029  RH  096%=      5-min Rain = 0
KWOS 090130Z 00000KT M02/M03 A3026 RMK A01 T10231029  RH  097%=      5-min Rain = 0
KWOS 090135Z 00000KT M02/M03 A3026 RMK A01 T10221027  RH  097%=      5-min Rain = 0
KWOS 090140Z 00000KT M02/M03 A3027 RMK A01 T10241029  RH  097%=      5-min Rain = 0
KWOS 090145Z 00000KT M03/M04 A3027 RMK A01 T10301035  RH  097%=      5-min Rain = 0
KWOS 090150Z 00000KT M03/M03 A3027 RMK A01 T10301034  RH  098%=      5-min Rain = 0
KWOS 090155Z 00000KT M03/M04 A3028 RMK A01 T10321036  RH  098%=      5-min Rain = 0
KWOS 090200Z 00000KT M04/M04 A3028 RMK A01 T10351039  RH  098%=      5-min Rain = 0
KWOS 090205Z 00000KT M03/M03 A3028 RMK A01 T10311034  RH  099%=      5-min Rain = 0
KWOS 090210Z 00000KT M03/M03 A3027 RMK A01 T10311033  RH  099%=      5-min Rain = 0
KWOS 090215Z 00000KT M03/M04 A3028 RMK A01 T10341037  RH  098%=      5-min Rain = 0
KWOS 090220Z 00000KT M04/M04 A3028 RMK A01 T10391043  RH  098%=      5-min Rain = 0
KWOS 090225Z 00000KT M04/M04 A3028 RMK A01 T10391042  RH  099%=      5-min Rain = 0
KWOS 090230Z 21001KT M04/M05 A3028 RMK A01 T10431045  RH  099%=      5-min Rain = 0
KWOS 090235Z 21003KT M05/M05 A3028 RMK A01 T10491052  RH  098%=      5-min Rain = 0
KWOS 090240Z 21003KT M06/M06 A3028 RMK A01 T10551058  RH  098%=      5-min Rain = 0
KWOS 090245Z 23005KT M06/M06 A3028 RMK A01 T10571060  RH  098%=      5-min Rain = 0
KWOS 090250Z 22005KT M06/M06 A3029 RMK A01 T10561059  RH  098%=      5-min Rain = 0
KWOS 090255Z 23005KT M06/M06 A3029 RMK A01 T10571061  RH  097%=      5-min Rain = 0
KWOS 090300Z 23005KT M06/M06 A3029 RMK A01 T10561060  RH  097%=      5-min Rain = 0
KWOS 090305Z 23005KT M06/M06 A3029 RMK A01 T10571062  RH  097%=      5-min Rain = 0
KWOS 090310Z 23005KT M06/M07 A3029 RMK A01 T10601065  RH  096%=      5-min Rain = 0
KWOS 090315Z 24005KT M06/M07 A3029 RMK A01 T10621067  RH  096%=      5-min Rain = 0
KWOS 090320Z 24005KT M06/M07 A3029 RMK A01 T10601065  RH  097%=      5-min Rain = 0
KWOS 090325Z 24004KT M06/M06 A3029 RMK A01 T10591063  RH  097%=      5-min Rain = 0
KWOS 090330Z 24004KT M06/M06 A3029 RMK A01 T10601064  RH  097%=      5-min Rain = 0
KWOS 090335Z 24004KT M06/M07 A3029 RMK A01 T10611066  RH  096%=      5-min Rain = 0
KWOS 090340Z 23003KT M06/M07 A3029 RMK A01 T10611066  RH  097%=      5-min Rain = 0
KWOS 090345Z 23003KT M06/M06 A3029 RMK A01 T10581062  RH  097%=      5-min Rain = 0
KWOS 090350Z 23004KT M06/M06 A3029 RMK A01 T10591063  RH  097%=      5-min Rain = 0
KWOS 090355Z 23004KT M06/M07 A303 RMK A01 T10631069  RH  096%=      5-min Rain = 0
KWOS 090400Z 23005KT M07/M07 A303 RMK A01 T10651071  RH  096%=      5-min Rain = 0
KWOS 090405Z 23005KT M07/M07 A303 RMK A01 T10671072  RH  096%=      5-min Rain = 0
KWOS 090410Z 24005KT M07/M07 A303 RMK A01 T10671072  RH  096%=      5-min Rain = 0
KWOS 090415Z 24004KT M07/M07 A303 RMK A01 T10671072  RH  096%=      5-min Rain = 0
KWOS 090420Z 24005KT M07/M07 A303 RMK A01 T10661072  RH  096%=      5-min Rain = 0
KWOS 090425Z 24005KT M06/M07 A303 RMK A01 T10641069  RH  097%=      5-min Rain = 0
KWOS 090430Z 25004KT M07/M07 A303 RMK A01 T10651070  RH  096%=      5-min Rain = 0
KWOS 090435Z 26004KT M07/M07 A303 RMK A01 T10651071  RH  096%=      5-min Rain = 0
KWOS 090440Z 26004KT M07/M07 A303 RMK A01 T10661072  RH  096%=      5-min Rain = 0
KWOS 090445Z 26005KT M07/M07 A303 RMK A01 T10671073  RH  096%=      5-min Rain = 0
KWOS 090450Z 27005KT M07/M07 A303 RMK A01 T10651070  RH  096%=      5-min Rain = 0
KWOS 090455Z 27005KT M06/M07 A303 RMK A01 T10631067  RH  097%=      5-min Rain = 0
KWOS 090500Z 28005KT M06/M07 A303 RMK A01 T10621067  RH  097%=      5-min Rain = 0
KWOS 090505Z 29004KT M06/M07 A303 RMK A01 T10621067  RH  097%=      5-min Rain = 0
KWOS 090510Z 29003KT M06/M07 A3031 RMK A01 T10641070  RH  096%=      5-min Rain = 0
KWOS 090515Z 28003KT M07/M07 A3031 RMK A01 T10671073  RH  096%=      5-min Rain = 0
KWOS 090520Z 28003KT M07/M08 A3031 RMK A01 T10691075  RH  095%=      5-min Rain = 0
KWOS 090525Z 28004KT M07/M08 A3031 RMK A01 T10711077  RH  095%=      5-min Rain = 0
KWOS 090530Z 29003KT M07/M08 A3031 RMK A01 T10721078  RH  095%=      5-min Rain = 0
KWOS 090535Z 28002KT M07/M08 A3031 RMK A01 T10731079  RH  095%=      5-min Rain = 0
KWOS 090540Z 29002KT M07/M08 A3031 RMK A01 T10741080  RH  095%=      5-min Rain = 0
KWOS 090545Z 28002KT M07/M08 A3031 RMK A01 T10731079  RH  095%=      5-min Rain = 0
KWOS 090550Z 28002KT M07/M08 A3031 RMK A01 T10741080  RH  095%=      5-min Rain = 0
KWOS 090555Z 33000KT M08/M08 A303 RMK A01 T10761082  RH  095%=      5-min Rain = 0

Page generated in 0.0191 seconds.